In Rescue
 
Open Full Screen Window  High Contrast Mode
Wind Gusting 14 knots
10
May 13, 2021 10:57 AM CDT
Weather Information
Wind Direction
  210 °
Wind Speed
  10 kt (12 mph)
Wind Gust
  14 kt (16 mph)
Altimeter
30.34 in
Visibility
10 SM
Temperature
19° C
66° F
Dewpoint
-02° C
28° F
Humidity
24%
1hr Rain Fall
00.00 in.
24hr Rain Fall
00.00 in.
Sky Condition
Clear
VFR

METAR KANE 131557Z AUTO 21010G14KT 10SM CLR 19/M02 A3034 RMK AO2

FAA Disclaimer: The data displayed is for advisory purposes only and is not to be used for flight planning or operations.